createdAt,value
2022-12-24T00:01:32.657Z,6.56
2022-12-24T00:03:59.028Z,6.53
2022-12-24T00:06:25.390Z,6.57
2022-12-24T00:08:52.163Z,6.50
2022-12-24T00:11:19.079Z,6.52
2022-12-24T00:13:45.432Z,6.41
2022-12-24T00:16:11.807Z,6.46
2022-12-24T00:18:45.201Z,6.47
2022-12-24T00:21:12.559Z,6.44
2022-12-24T00:23:39.989Z,6.46
2022-12-24T00:26:06.396Z,6.46
2022-12-24T00:28:32.779Z,6.44
2022-12-24T00:30:59.222Z,6.44
2022-12-24T00:33:25.598Z,6.43
2022-12-24T00:35:52.405Z,6.41
2022-12-24T00:38:18.874Z,6.43
2022-12-24T00:40:45.436Z,6.35
2022-12-24T00:43:11.794Z,6.36
2022-12-24T00:45:38.180Z,6.30
2022-12-24T00:48:04.657Z,6.28
2022-12-24T00:50:31.010Z,6.28
2022-12-24T00:52:57.632Z,6.31
2022-12-24T00:55:24.220Z,6.30
2022-12-24T00:57:50.582Z,6.29
2022-12-24T01:00:17.964Z,6.35
2022-12-24T01:02:44.740Z,6.35
2022-12-24T01:05:11.672Z,6.35
2022-12-24T01:07:39.444Z,6.35
2022-12-24T01:10:06.733Z,6.37
2022-12-24T01:12:33.167Z,6.37
2022-12-24T01:14:59.527Z,6.36
2022-12-24T01:17:25.887Z,6.40
2022-12-24T01:19:52.486Z,6.38
2022-12-24T01:22:19.534Z,6.38
2022-12-24T01:24:45.991Z,6.35
2022-12-24T01:27:12.370Z,6.37
2022-12-24T01:29:38.745Z,6.40
2022-12-24T01:32:05.134Z,6.43
2022-12-24T01:34:31.606Z,6.43
2022-12-24T01:36:57.976Z,6.46
2022-12-24T01:39:24.358Z,6.47
2022-12-24T01:42:09.467Z,6.45
2022-12-24T01:44:37.415Z,6.46
2022-12-24T01:47:06.795Z,6.47
2022-12-24T01:49:33.239Z,6.44
2022-12-24T01:52:08.331Z,6.43
2022-12-24T01:54:37.362Z,6.33
2022-12-24T01:57:08.044Z,6.35
2022-12-24T01:59:34.658Z,6.35
2022-12-24T02:02:01.234Z,6.35
2022-12-24T02:04:30.794Z,6.36
2022-12-24T02:06:57.266Z,6.35
2022-12-24T02:09:23.872Z,6.36
2022-12-24T02:11:50.267Z,6.39
2022-12-24T02:14:16.703Z,6.39
2022-12-24T02:17:00.707Z,6.41
2022-12-24T02:19:55.217Z,6.41
2022-12-24T02:22:55.691Z,6.42
2022-12-24T02:25:59.847Z,6.43
2022-12-24T02:28:51.155Z,6.38
2022-12-24T02:31:44.848Z,6.40
2022-12-24T02:34:48.131Z,6.41
2022-12-24T02:37:26.478Z,6.38
2022-12-24T02:39:59.845Z,6.33
2022-12-24T02:42:27.710Z,6.33
2022-12-24T02:44:56.965Z,6.36
2022-12-24T02:47:25.116Z,6.38
2022-12-24T02:49:51.481Z,6.38
2022-12-24T02:52:37.255Z,6.30
2022-12-24T02:55:12.659Z,6.22
2022-12-24T02:57:48.535Z,6.23
2022-12-24T03:00:19.672Z,6.30
2022-12-24T03:03:07.949Z,6.35
2022-12-24T03:05:46.008Z,6.36
2022-12-24T03:08:17.210Z,6.41
2022-12-24T03:10:56.480Z,6.39
2022-12-24T03:13:22.904Z,6.41
2022-12-24T03:15:49.533Z,6.41
2022-12-24T03:18:18.189Z,6.43
2022-12-24T03:20:57.154Z,6.44
2022-12-24T03:23:23.538Z,6.45
2022-12-24T03:25:49.916Z,6.41
2022-12-24T03:28:17.776Z,6.41
2022-12-24T03:30:45.640Z,6.45
2022-12-24T03:33:12.372Z,6.50
2022-12-24T03:35:38.904Z,6.48
2022-12-24T03:38:05.265Z,6.52
2022-12-24T03:40:31.671Z,6.53
2022-12-24T03:42:58.034Z,6.56
2022-12-24T03:45:24.498Z,6.60
2022-12-24T03:47:50.865Z,6.67
2022-12-24T03:50:17.338Z,6.79
2022-12-24T03:52:44.139Z,6.86
2022-12-24T03:55:10.551Z,6.94
2022-12-24T03:57:36.986Z,7.01
2022-12-24T04:00:05.097Z,7.05
2022-12-24T04:02:32.152Z,7.08
2022-12-24T04:04:58.765Z,7.12
2022-12-24T04:07:25.111Z,7.15
2022-12-24T04:09:51.478Z,7.31
2022-12-24T04:12:18.070Z,7.64
2022-12-24T04:14:44.436Z,7.85
2022-12-24T04:17:10.792Z,8.02
2022-12-24T04:19:37.371Z,8.13
2022-12-24T04:22:03.819Z,8.31
2022-12-24T04:24:30.182Z,8.37
2022-12-24T04:26:56.736Z,8.49
2022-12-24T04:29:23.079Z,8.59
2022-12-24T04:31:49.501Z,8.69
2022-12-24T04:34:16.153Z,8.77
2022-12-24T04:36:42.489Z,8.80
2022-12-24T04:39:08.875Z,8.82
2022-12-24T04:41:35.232Z,8.84
2022-12-24T04:44:01.599Z,8.84
2022-12-24T04:46:31.507Z,8.87
2022-12-24T04:48:58.452Z,8.88
2022-12-24T04:51:25.327Z,8.88
2022-12-24T04:53:52.023Z,8.91
2022-12-24T04:56:23.034Z,8.94
2022-12-24T04:58:49.495Z,8.97
2022-12-24T05:01:18.431Z,9.01
2022-12-24T05:03:45.397Z,9.00
2022-12-24T05:06:13.029Z,8.99
2022-12-24T05:08:39.509Z,9.01
2022-12-24T05:11:05.987Z,9.03
2022-12-24T05:13:40.671Z,9.03
2022-12-24T05:16:11.078Z,8.99
2022-12-24T05:18:37.707Z,8.99
2022-12-24T05:21:08.584Z,8.99
2022-12-24T05:23:53.987Z,9.02
2022-12-24T05:26:36.095Z,9.04
2022-12-24T05:29:03.018Z,9.01
2022-12-24T05:31:30.481Z,8.96
2022-12-24T05:33:57.010Z,9.00
2022-12-24T05:36:23.825Z,9.00
2022-12-24T05:38:50.296Z,8.99
2022-12-24T05:41:16.750Z,9.00
2022-12-24T05:43:43.294Z,9.02
2022-12-24T05:46:11.287Z,9.01
2022-12-24T05:48:37.721Z,9.02
2022-12-24T05:51:08.590Z,8.99
2022-12-24T05:53:35.351Z,9.04
2022-12-24T05:56:06.018Z,9.09
2022-12-24T05:58:32.713Z,9.07
2022-12-24T06:00:59.101Z,9.12
2022-12-24T06:03:25.469Z,9.15
2022-12-24T06:06:01.189Z,9.11
2022-12-24T06:08:28.481Z,9.11
2022-12-24T06:10:58.651Z,9.09
2022-12-24T06:13:25.251Z,9.05
2022-12-24T06:15:54.696Z,9.03
2022-12-24T06:18:21.203Z,9.04
2022-12-24T06:20:53.319Z,9.06
2022-12-24T06:23:19.846Z,9.05
2022-12-24T06:25:46.640Z,9.05
2022-12-24T06:28:13.068Z,9.02
2022-12-24T06:30:39.482Z,9.02
2022-12-24T06:33:05.832Z,9.02
2022-12-24T06:35:33.254Z,8.96
2022-12-24T06:37:59.804Z,8.89
2022-12-24T06:40:26.933Z,8.86
2022-12-24T06:42:53.311Z,8.83
2022-12-24T06:45:19.700Z,8.81
2022-12-24T06:47:46.044Z,8.80
2022-12-24T06:50:12.410Z,8.80
2022-12-24T06:52:38.788Z,8.81
2022-12-24T06:55:05.551Z,8.84
2022-12-24T06:57:31.959Z,8.89
2022-12-24T06:59:59.006Z,8.92
2022-12-24T07:02:25.529Z,8.85
2022-12-24T07:04:51.934Z,8.87
2022-12-24T07:07:18.300Z,8.91
2022-12-24T07:09:44.658Z,8.93
2022-12-24T07:12:11.213Z,8.93
2022-12-24T07:14:37.562Z,8.90
2022-12-24T07:17:04.409Z,8.92
2022-12-24T07:19:31.069Z,8.93
2022-12-24T07:21:57.410Z,8.94
2022-12-24T07:24:23.949Z,8.91
2022-12-24T07:26:50.687Z,8.97
2022-12-24T07:29:17.039Z,8.98
2022-12-24T07:31:43.424Z,8.95
2022-12-24T07:34:09.866Z,8.93
2022-12-24T07:36:36.238Z,8.94
2022-12-24T07:39:02.628Z,8.98
2022-12-24T07:41:29.213Z,8.99
2022-12-24T07:43:55.648Z,9.02
2022-12-24T07:46:22.078Z,9.03
2022-12-24T07:48:48.628Z,9.04
2022-12-24T07:51:15.116Z,9.02
2022-12-24T07:53:47.597Z,9.07
2022-12-24T07:56:16.321Z,9.05
2022-12-24T07:58:42.865Z,9.07
2022-12-24T08:01:09.469Z,9.06
2022-12-24T08:03:36.010Z,9.11
2022-12-24T08:06:02.553Z,9.08
2022-12-24T08:08:28.919Z,9.05
2022-12-24T08:11:00.588Z,9.10
2022-12-24T08:13:26.920Z,9.06
2022-12-24T08:15:53.313Z,9.05
2022-12-24T08:18:19.742Z,9.07
2022-12-24T08:20:46.082Z,9.03
2022-12-24T08:23:12.440Z,9.02
2022-12-24T08:25:42.612Z,8.99
2022-12-24T08:28:09.149Z,9.02
2022-12-24T08:30:36.047Z,9.03
2022-12-24T08:33:02.666Z,9.00
2022-12-24T08:35:29.141Z,9.02
2022-12-24T08:37:55.563Z,9.00
2022-12-24T08:40:22.162Z,9.02
2022-12-24T08:42:48.621Z,9.03
2022-12-24T08:45:15.127Z,9.04
2022-12-24T08:47:41.980Z,9.02
2022-12-24T08:50:09.058Z,9.00
2022-12-24T08:52:35.489Z,9.03
2022-12-24T08:55:02.015Z,9.06
2022-12-24T08:57:28.403Z,9.07
2022-12-24T08:59:54.771Z,9.05
2022-12-24T09:02:21.541Z,9.07
2022-12-24T09:04:48.082Z,9.09
2022-12-24T09:07:14.489Z,9.06
2022-12-24T09:09:40.886Z,9.06
2022-12-24T09:12:07.941Z,9.06
2022-12-24T09:14:34.520Z,9.09
2022-12-24T09:17:00.997Z,9.09
2022-12-24T09:19:27.994Z,9.11
2022-12-24T09:21:54.357Z,9.15
2022-12-24T09:24:21.002Z,9.19
2022-12-24T09:26:55.598Z,9.20
2022-12-24T09:29:24.027Z,9.16
2022-12-24T09:31:50.761Z,9.11
2022-12-24T09:34:17.284Z,9.10
2022-12-24T09:36:43.681Z,9.06
2022-12-24T09:39:10.041Z,9.04
2022-12-24T09:42:15.001Z,9.02
2022-12-24T09:44:44.081Z,8.99
2022-12-24T09:47:38.597Z,8.98
2022-12-24T09:50:09.416Z,8.99
2022-12-24T09:52:36.787Z,9.01
2022-12-24T09:55:12.481Z,9.03
2022-12-24T09:57:39.086Z,9.08
2022-12-24T10:00:09.143Z,9.16
2022-12-24T10:02:35.742Z,9.20
2022-12-24T10:05:02.237Z,9.24
2022-12-24T10:07:35.017Z,9.27
2022-12-24T10:10:10.738Z,9.34
2022-12-24T10:13:16.302Z,9.37
2022-12-24T10:15:57.076Z,9.44
2022-12-24T10:18:48.890Z,9.52
2022-12-24T10:21:16.999Z,9.57
2022-12-24T10:23:47.877Z,9.60
2022-12-24T10:26:36.290Z,9.64
2022-12-24T10:29:09.051Z,9.66
2022-12-24T10:31:36.663Z,9.72
2022-12-24T10:34:05.789Z,9.74
2022-12-24T10:36:32.320Z,9.85
2022-12-24T10:38:58.937Z,9.87
2022-12-24T10:41:25.746Z,9.91
2022-12-24T10:43:52.145Z,9.94
2022-12-24T10:46:19.068Z,9.95
2022-12-24T10:48:57.860Z,9.98
2022-12-24T10:51:55.136Z,10.00
2022-12-24T10:54:27.525Z,10.00
2022-12-24T10:57:01.304Z,9.93
2022-12-24T10:59:33.827Z,9.97
2022-12-24T11:02:01.176Z,9.99
2022-12-24T11:04:29.537Z,10.00
2022-12-24T11:07:03.095Z,10.02
2022-12-24T11:09:36.600Z,10.03
2022-12-24T11:12:09.323Z,9.99
2022-12-24T11:14:37.589Z,9.98
2022-12-24T11:17:03.966Z,9.97
2022-12-24T11:19:32.574Z,9.98
2022-12-24T11:22:17.668Z,9.95
2022-12-24T11:24:49.793Z,9.96
2022-12-24T11:27:35.043Z,9.94
2022-12-24T11:30:17.116Z,9.94
2022-12-24T11:33:04.197Z,9.91
2022-12-24T11:35:32.385Z,9.89
2022-12-24T11:38:05.023Z,9.88
2022-12-24T11:40:43.903Z,9.87
2022-12-24T11:43:20.638Z,9.89
2022-12-24T11:45:56.969Z,9.89
2022-12-24T11:48:31.329Z,9.92
2022-12-24T11:51:02.123Z,9.96
2022-12-24T11:53:36.291Z,9.97
2022-12-24T11:56:03.952Z,9.97
2022-12-24T11:59:22.521Z,9.92
2022-12-24T12:02:12.927Z,9.84
2022-12-24T12:04:39.409Z,9.79
2022-12-24T12:07:15.824Z,9.78
2022-12-24T12:09:44.461Z,9.75
2022-12-24T12:12:15.351Z,9.72
2022-12-24T12:14:54.231Z,9.68
2022-12-24T12:17:42.289Z,9.64
2022-12-24T12:20:34.911Z,9.64
2022-12-24T12:23:17.907Z,9.61
2022-12-24T12:25:47.681Z,9.59
2022-12-24T12:28:26.925Z,9.57
2022-12-24T12:31:10.401Z,9.56
2022-12-24T12:34:00.537Z,9.53
2022-12-24T12:36:31.425Z,9.53
2022-12-24T12:38:57.824Z,9.53
2022-12-24T12:41:33.461Z,9.50
2022-12-24T12:43:59.807Z,9.52
2022-12-24T12:46:38.111Z,9.48
2022-12-24T12:49:52.596Z,9.49
2022-12-24T12:52:44.280Z,9.54
2022-12-24T12:55:24.368Z,9.51
2022-12-24T12:57:51.907Z,9.49
2022-12-24T13:00:19.155Z,9.50
2022-12-24T13:02:48.636Z,9.49
2022-12-24T13:05:33.135Z,9.46
2022-12-24T13:08:13.183Z,9.40
2022-12-24T13:10:45.630Z,9.36
2022-12-24T13:13:52.058Z,9.33
2022-12-24T13:16:39.959Z,9.29
2022-12-24T13:19:18.800Z,9.29
2022-12-24T13:21:45.868Z,9.31
2022-12-24T13:24:20.995Z,9.31
2022-12-24T13:27:19.519Z,9.30
2022-12-24T13:30:25.024Z,9.30
2022-12-24T13:32:53.103Z,9.24
2022-12-24T13:35:19.477Z,9.18
2022-12-24T13:37:48.940Z,9.14
2022-12-24T13:40:25.156Z,9.07
2022-12-24T13:42:52.341Z,9.05
2022-12-24T13:45:31.618Z,9.04
2022-12-24T13:48:08.371Z,8.99
2022-12-24T13:50:37.016Z,8.97
2022-12-24T13:53:03.507Z,8.95
2022-12-24T13:55:29.912Z,8.96
2022-12-24T13:57:59.945Z,8.97
2022-12-24T14:00:33.742Z,8.95
2022-12-24T14:03:24.633Z,8.94
2022-12-24T14:05:56.928Z,8.94
2022-12-24T14:08:23.289Z,8.92
2022-12-24T14:11:19.680Z,8.92
2022-12-24T14:13:46.004Z,8.90
2022-12-24T14:16:23.762Z,8.91
2022-12-24T14:19:16.312Z,8.98
2022-12-24T14:21:49.806Z,8.97
2022-12-24T14:24:18.124Z,9.01
2022-12-24T14:26:47.138Z,8.99
2022-12-24T14:29:32.066Z,8.96
2022-12-24T14:31:59.656Z,8.92
2022-12-24T14:34:26.939Z,8.89
2022-12-24T14:36:55.224Z,8.79
2022-12-24T14:39:35.567Z,8.48
2022-12-24T14:42:05.195Z,8.28
2022-12-24T14:44:36.391Z,8.09
2022-12-24T14:47:22.209Z,8.03
2022-12-24T14:50:00.838Z,7.97
2022-12-24T14:53:04.010Z,7.95
2022-12-24T14:55:35.627Z,7.93
2022-12-24T14:58:25.120Z,7.88
2022-12-24T15:00:52.486Z,7.85
2022-12-24T15:03:20.833Z,7.88
2022-12-24T15:05:51.350Z,7.88
2022-12-24T15:08:28.409Z,7.87
2022-12-24T15:10:55.591Z,7.88
2022-12-24T15:13:36.493Z,7.90
2022-12-24T15:16:14.599Z,7.90
2022-12-24T15:19:06.096Z,7.89
2022-12-24T15:21:34.194Z,7.92
2022-12-24T15:24:00.934Z,7.90
2022-12-24T15:26:29.254Z,7.91
2022-12-24T15:29:02.786Z,7.91
2022-12-24T15:31:30.092Z,7.94
2022-12-24T15:33:56.942Z,7.93
2022-12-24T15:36:33.922Z,7.94
2022-12-24T15:39:02.853Z,7.95
2022-12-24T15:42:06.206Z,7.96
2022-12-24T15:44:36.913Z,7.95
2022-12-24T15:47:04.856Z,7.95
2022-12-24T15:49:31.745Z,7.95
2022-12-24T15:52:11.754Z,7.97
2022-12-24T15:54:43.389Z,7.97
2022-12-24T15:57:42.211Z,7.96
2022-12-24T16:00:23.711Z,7.99
2022-12-24T16:02:50.352Z,8.01
2022-12-24T16:05:27.629Z,8.00
2022-12-24T16:08:09.419Z,8.00
2022-12-24T16:10:40.099Z,8.00
2022-12-24T16:13:19.724Z,7.98
2022-12-24T16:15:48.944Z,7.96
2022-12-24T16:18:17.201Z,7.96
2022-12-24T16:20:48.495Z,7.95
2022-12-24T16:23:26.000Z,7.92
2022-12-24T16:25:55.462Z,7.89
2022-12-24T16:28:23.213Z,7.88
2022-12-24T16:30:50.156Z,7.83
2022-12-24T16:33:18.501Z,7.80
2022-12-24T16:35:45.035Z,7.79
2022-12-24T16:38:13.449Z,7.77
2022-12-24T16:40:41.135Z,7.79
2022-12-24T16:43:26.673Z,7.78
2022-12-24T16:45:53.245Z,7.81
2022-12-24T16:48:28.831Z,7.80
2022-12-24T16:50:55.306Z,7.79
2022-12-24T16:53:21.916Z,7.77
2022-12-24T16:55:49.634Z,7.75
2022-12-24T16:58:17.444Z,7.75
2022-12-24T17:00:44.786Z,7.74
2022-12-24T17:03:11.710Z,7.74
2022-12-24T17:05:39.443Z,7.75
2022-12-24T17:08:06.521Z,7.74
2022-12-24T17:10:33.055Z,7.73
2022-12-24T17:12:59.467Z,7.70
2022-12-24T17:15:25.849Z,7.70
2022-12-24T17:17:52.281Z,7.68
2022-12-24T17:20:23.814Z,7.68
2022-12-24T17:22:50.806Z,7.71
2022-12-24T17:25:17.305Z,7.63
2022-12-24T17:27:43.825Z,7.52
2022-12-24T17:30:10.546Z,7.52
2022-12-24T17:32:37.573Z,7.48
2022-12-24T17:35:04.341Z,7.43
2022-12-24T17:37:30.779Z,7.38
2022-12-24T17:39:57.295Z,7.36
2022-12-24T17:42:23.760Z,7.24
2022-12-24T17:44:50.159Z,7.19
2022-12-24T17:47:16.612Z,7.12
2022-12-24T17:49:43.192Z,6.99
2022-12-24T17:52:09.636Z,6.86
2022-12-24T17:54:36.052Z,6.70
2022-12-24T17:57:02.503Z,6.61
2022-12-24T17:59:28.930Z,6.51
2022-12-24T18:01:55.465Z,6.41
2022-12-24T18:04:21.923Z,6.44
2022-12-24T18:06:49.726Z,6.39
2022-12-24T18:09:16.404Z,6.49
2022-12-24T18:11:42.846Z,6.69
2022-12-24T18:14:10.546Z,6.81
2022-12-24T18:16:38.426Z,6.87
2022-12-24T18:19:06.211Z,6.90
2022-12-24T18:21:33.213Z,6.89
2022-12-24T18:23:59.840Z,6.93
2022-12-24T18:26:27.821Z,6.93
2022-12-24T18:28:55.345Z,6.96
2022-12-24T18:31:22.067Z,6.96
2022-12-24T18:33:49.281Z,6.97
2022-12-24T18:36:15.745Z,6.95
2022-12-24T18:38:42.116Z,6.95
2022-12-24T18:41:10.680Z,6.92
2022-12-24T18:43:37.178Z,6.92
2022-12-24T18:46:30.652Z,6.95
2022-12-24T18:48:57.666Z,6.95
2022-12-24T18:51:24.479Z,6.97
2022-12-24T18:53:51.196Z,6.96
2022-12-24T18:56:22.509Z,6.94
2022-12-24T18:58:49.034Z,6.93
2022-12-24T19:01:26.088Z,6.92
2022-12-24T19:03:52.606Z,6.93
2022-12-24T19:06:19.477Z,6.89
2022-12-24T19:08:57.184Z,6.96
2022-12-24T19:11:24.579Z,6.97
2022-12-24T19:13:51.683Z,6.97
2022-12-24T19:16:18.294Z,7.00
2022-12-24T19:18:44.939Z,7.01
2022-12-24T19:21:12.296Z,7.04
2022-12-24T19:23:38.672Z,7.04
2022-12-24T19:26:05.542Z,7.03
2022-12-24T19:28:32.109Z,7.02
2022-12-24T19:31:09.083Z,7.03
2022-12-24T19:33:43.541Z,7.01
2022-12-24T19:36:12.312Z,7.02
2022-12-24T19:38:38.837Z,7.01
2022-12-24T19:41:16.208Z,7.00
2022-12-24T19:43:48.039Z,6.99
2022-12-24T19:46:16.448Z,6.98
2022-12-24T19:48:43.109Z,6.98
2022-12-24T19:51:10.822Z,6.98
2022-12-24T19:53:37.685Z,6.99
2022-12-24T19:56:04.317Z,6.99
2022-12-24T19:58:34.463Z,7.00
2022-12-24T20:01:28.484Z,7.00
2022-12-24T20:03:55.232Z,7.01
2022-12-24T20:06:23.623Z,6.99
2022-12-24T20:08:50.140Z,6.96
2022-12-24T20:11:18.019Z,6.95
2022-12-24T20:13:44.603Z,6.95
2022-12-24T20:16:15.846Z,6.96
2022-12-24T20:18:42.328Z,6.97
2022-12-24T20:21:10.693Z,6.92
2022-12-24T20:23:38.346Z,6.87
2022-12-24T20:26:05.263Z,6.87
2022-12-24T20:28:32.764Z,6.83
2022-12-24T20:30:59.145Z,6.81
2022-12-24T20:33:25.729Z,6.82
2022-12-24T20:35:52.115Z,6.80
2022-12-24T20:38:18.530Z,6.74
2022-12-24T20:40:45.600Z,6.66
2022-12-24T20:43:12.461Z,6.55
2022-12-24T20:45:39.150Z,6.51
2022-12-24T20:48:06.405Z,6.48
2022-12-24T20:50:32.820Z,6.35
2022-12-24T20:52:59.189Z,6.24
2022-12-24T20:55:25.569Z,6.09
2022-12-24T20:57:52.269Z,5.93
2022-12-24T21:00:19.854Z,5.75
2022-12-24T21:02:46.627Z,5.67
2022-12-24T21:05:13.129Z,5.54
2022-12-24T21:07:39.944Z,5.44
2022-12-24T21:10:07.481Z,5.41
2022-12-24T21:12:48.721Z,5.37
2022-12-24T21:15:19.258Z,5.29
2022-12-24T21:17:46.205Z,5.23
2022-12-24T21:20:12.898Z,5.19
2022-12-24T21:22:39.389Z,5.18
2022-12-24T21:25:06.412Z,5.11
2022-12-24T21:27:32.852Z,5.06
2022-12-24T21:29:59.425Z,4.98
2022-12-24T21:32:25.850Z,4.93
2022-12-24T21:34:52.265Z,4.90
2022-12-24T21:37:19.056Z,4.81
2022-12-24T21:39:45.438Z,4.79
2022-12-24T21:42:11.820Z,4.72
2022-12-24T21:44:38.232Z,4.67
2022-12-24T21:47:04.811Z,4.62
2022-12-24T21:49:49.762Z,4.56
2022-12-24T21:52:16.146Z,4.50
2022-12-24T21:54:42.619Z,4.48
2022-12-24T21:57:27.849Z,4.44
2022-12-24T21:59:55.865Z,4.38
2022-12-24T22:02:26.580Z,4.34
2022-12-24T22:04:53.467Z,4.31
2022-12-24T22:07:45.051Z,4.24
2022-12-24T22:10:30.869Z,4.24
2022-12-24T22:12:59.015Z,4.23
2022-12-24T22:15:25.422Z,4.18
2022-12-24T22:17:51.811Z,4.15
2022-12-24T22:20:18.276Z,4.12
2022-12-24T22:22:44.629Z,4.13
2022-12-24T22:25:11.052Z,4.13
2022-12-24T22:27:37.432Z,4.12
2022-12-24T22:30:04.148Z,4.12
2022-12-24T22:32:30.521Z,4.11
2022-12-24T22:34:56.885Z,4.09
2022-12-24T22:37:23.301Z,4.08
2022-12-24T22:39:49.668Z,4.04
2022-12-24T22:42:16.076Z,4.14
2022-12-24T22:44:42.447Z,4.22
2022-12-24T22:47:08.819Z,4.26
2022-12-24T22:49:37.065Z,4.29
2022-12-24T22:52:03.581Z,4.29
2022-12-24T22:54:29.950Z,4.23
2022-12-24T22:56:56.299Z,4.16
2022-12-24T22:59:22.684Z,4.12
2022-12-24T23:01:49.198Z,4.05
2022-12-24T23:04:15.730Z,4.02
2022-12-24T23:06:42.189Z,3.95
2022-12-24T23:09:09.443Z,3.84
2022-12-24T23:11:36.014Z,3.81
2022-12-24T23:14:21.266Z,3.80
2022-12-24T23:16:47.629Z,3.78
2022-12-24T23:19:14.050Z,3.75
2022-12-24T23:21:40.475Z,3.69
2022-12-24T23:24:07.441Z,3.65
2022-12-24T23:26:33.787Z,3.60
2022-12-24T23:29:00.330Z,3.60
2022-12-24T23:31:26.835Z,3.55
2022-12-24T23:33:53.324Z,3.53
2022-12-24T23:36:19.808Z,3.54
2022-12-24T23:38:46.164Z,3.62
2022-12-24T23:41:12.551Z,3.67
2022-12-24T23:43:39.003Z,3.65
2022-12-24T23:46:05.902Z,3.67
2022-12-24T23:48:32.309Z,3.62
2022-12-24T23:51:10.126Z,3.52
2022-12-24T23:53:36.670Z,3.51
2022-12-24T23:56:03.400Z,3.54
2022-12-24T23:58:29.763Z,3.53
